createdAt,value
2023-01-17T00:02:03.810Z,3.41
2023-01-17T00:07:44.095Z,3.36
2023-01-17T00:13:04.516Z,3.39
2023-01-17T00:18:24.932Z,3.40
2023-01-17T00:24:04.179Z,3.39
2023-01-17T00:29:24.482Z,3.44
2023-01-17T00:34:44.769Z,3.46
2023-01-17T00:40:06.741Z,3.49
2023-01-17T00:45:46.098Z,3.49
2023-01-17T00:51:25.257Z,3.41
2023-01-17T00:57:04.620Z,3.28
2023-01-17T01:02:45.106Z,3.34
2023-01-17T01:08:44.248Z,3.28
2023-01-17T01:14:24.682Z,3.13
2023-01-17T01:20:03.954Z,3.11
2023-01-17T01:25:42.788Z,3.03
2023-01-17T01:31:23.196Z,3.08
2023-01-17T01:36:43.976Z,3.10
2023-01-17T01:42:10.518Z,3.07
2023-01-17T01:47:35.414Z,3.11
2023-01-17T01:53:00.839Z,3.12
2023-01-17T01:58:25.334Z,3.15
2023-01-17T02:03:47.050Z,3.24
2023-01-17T02:09:10.983Z,3.22
2023-01-17T02:14:32.024Z,3.28
2023-01-17T02:20:20.135Z,3.27
2023-01-17T02:26:04.536Z,3.29
2023-01-17T02:31:37.388Z,3.33
2023-01-17T02:37:02.936Z,3.37
2023-01-17T02:42:34.908Z,3.44
2023-01-17T02:47:55.669Z,3.45
2023-01-17T02:53:44.184Z,3.44
2023-01-17T02:59:13.362Z,3.43
2023-01-17T03:04:48.181Z,3.51
2023-01-17T03:10:11.027Z,3.50
2023-01-17T03:15:31.573Z,3.58
2023-01-17T03:20:52.396Z,3.60
2023-01-17T03:26:12.815Z,3.63
2023-01-17T03:31:33.280Z,3.65
2023-01-17T03:36:53.313Z,3.66
2023-01-17T03:42:13.767Z,3.72
2023-01-17T03:47:35.073Z,3.79
2023-01-17T03:52:55.750Z,3.92
2023-01-17T03:58:16.516Z,3.99
2023-01-17T04:03:37.355Z,3.88
2023-01-17T04:08:57.831Z,3.89
2023-01-17T04:14:18.623Z,3.96
2023-01-17T04:19:39.218Z,3.98
2023-01-17T04:24:59.689Z,4.00
2023-01-17T04:30:20.632Z,3.99
2023-01-17T04:35:41.324Z,3.68
2023-01-17T04:41:02.165Z,3.44
2023-01-17T04:46:22.709Z,3.24
2023-01-17T04:51:43.487Z,3.10
2023-01-17T04:57:04.085Z,3.04
2023-01-17T05:02:24.597Z,2.94
2023-01-17T05:07:52.326Z,2.91
2023-01-17T05:13:12.843Z,2.88
2023-01-17T05:18:33.333Z,2.89
2023-01-17T05:23:53.917Z,2.83
2023-01-17T05:29:14.561Z,2.60
2023-01-17T05:34:35.073Z,2.52
2023-01-17T05:39:55.831Z,2.50
2023-01-17T05:45:17.760Z,2.52
2023-01-17T05:50:38.671Z,2.45
2023-01-17T05:55:59.141Z,2.48
2023-01-17T06:01:23.811Z,2.51
2023-01-17T06:06:46.833Z,2.38
2023-01-17T06:12:08.797Z,2.33
2023-01-17T06:17:29.248Z,2.35
2023-01-17T06:22:50.189Z,2.35
2023-01-17T06:28:12.396Z,2.46
2023-01-17T06:33:33.176Z,2.54
2023-01-17T06:38:53.862Z,2.58
2023-01-17T06:44:14.403Z,2.62
2023-01-17T06:49:35.105Z,2.56
2023-01-17T06:54:56.209Z,2.61
2023-01-17T07:00:17.363Z,2.62
2023-01-17T07:05:37.976Z,2.75
2023-01-17T07:11:01.499Z,2.90
2023-01-17T07:16:21.888Z,3.01
2023-01-17T07:21:42.461Z,3.12
2023-01-17T07:27:03.548Z,3.22
2023-01-17T07:32:26.501Z,3.28
2023-01-17T07:37:50.964Z,3.34
2023-01-17T07:43:14.864Z,3.48
2023-01-17T07:48:35.756Z,3.47
2023-01-17T07:53:56.490Z,3.62
2023-01-17T07:59:18.029Z,3.76
2023-01-17T08:04:38.810Z,3.75
2023-01-17T08:10:00.745Z,3.70
2023-01-17T08:15:21.722Z,3.69
2023-01-17T08:20:45.356Z,3.58
2023-01-17T08:26:06.129Z,3.58
2023-01-17T08:31:31.342Z,3.72
2023-01-17T08:36:52.820Z,3.84
2023-01-17T08:42:13.205Z,3.96
2023-01-17T08:47:34.528Z,4.01
2023-01-17T08:53:01.128Z,4.09
2023-01-17T08:58:22.631Z,4.05
2023-01-17T09:03:43.525Z,3.98
2023-01-17T09:09:05.214Z,3.94
2023-01-17T09:14:25.618Z,3.91
2023-01-17T09:19:49.179Z,3.94
2023-01-17T09:25:10.096Z,3.99
2023-01-17T09:30:30.415Z,4.03
2023-01-17T09:35:50.957Z,3.77
2023-01-17T09:41:28.854Z,3.60
2023-01-17T09:46:54.310Z,3.59
2023-01-17T09:52:18.880Z,3.74
2023-01-17T09:57:57.570Z,3.93
2023-01-17T10:03:41.797Z,4.03
2023-01-17T10:09:29.609Z,4.00
2023-01-17T10:15:32.228Z,4.14
2023-01-17T10:21:03.502Z,4.22
2023-01-17T10:26:25.464Z,4.21
2023-01-17T10:31:55.703Z,4.29
2023-01-17T10:37:19.359Z,4.34
2023-01-17T10:43:22.617Z,4.98
2023-01-17T10:48:45.985Z,4.75
2023-01-17T10:54:28.207Z,4.39
2023-01-17T10:59:49.627Z,4.71
2023-01-17T11:05:28.725Z,5.06
2023-01-17T11:10:54.172Z,4.58
2023-01-17T11:16:23.034Z,4.13
2023-01-17T11:21:55.942Z,4.53
2023-01-17T11:27:28.223Z,5.64
2023-01-17T11:32:53.975Z,5.84
2023-01-17T11:38:22.031Z,6.17
2023-01-17T11:43:56.548Z,5.07
2023-01-17T11:49:25.529Z,4.79
2023-01-17T11:54:48.324Z,4.56
2023-01-17T12:00:08.800Z,5.08
2023-01-17T12:05:53.499Z,4.57
2023-01-17T12:11:22.651Z,4.06
2023-01-17T12:16:59.747Z,4.37
2023-01-17T12:22:40.767Z,4.66
2023-01-17T12:28:29.014Z,3.89
2023-01-17T12:34:01.322Z,3.70
2023-01-17T12:39:28.883Z,3.87
2023-01-17T12:44:50.042Z,4.99
2023-01-17T12:51:02.647Z,5.15
2023-01-17T12:56:44.478Z,5.43
2023-01-17T13:02:22.686Z,6.30
2023-01-17T13:07:55.151Z,6.42
2023-01-17T13:13:22.304Z,5.86
2023-01-17T13:18:46.273Z,5.16
2023-01-17T13:24:17.871Z,4.55
2023-01-17T13:29:47.576Z,3.58
2023-01-17T13:35:42.022Z,2.55
2023-01-17T13:41:08.507Z,2.07
2023-01-17T13:46:51.965Z,2.02
2023-01-17T13:52:18.391Z,2.22
2023-01-17T13:57:43.537Z,2.36
2023-01-17T14:03:04.962Z,2.37
2023-01-17T14:08:27.198Z,2.27
2023-01-17T14:13:49.637Z,2.29
2023-01-17T14:19:25.966Z,2.35
2023-01-17T14:25:00.277Z,2.67
2023-01-17T14:30:28.379Z,2.68
2023-01-17T14:35:52.720Z,2.64
2023-01-17T14:41:19.064Z,2.85
2023-01-17T14:46:39.608Z,2.97
2023-01-17T14:52:04.774Z,2.93
2023-01-17T14:57:28.196Z,2.96
2023-01-17T15:02:50.589Z,3.15
2023-01-17T15:08:17.450Z,3.08
2023-01-17T15:13:47.396Z,2.58
2023-01-17T15:19:13.025Z,2.40
2023-01-17T15:24:40.988Z,2.28
2023-01-17T15:30:03.980Z,2.32
2023-01-17T15:35:25.221Z,2.41
2023-01-17T15:40:46.605Z,2.39
2023-01-17T15:46:07.329Z,2.36
2023-01-17T15:51:38.610Z,2.50
2023-01-17T15:57:18.026Z,2.55
2023-01-17T16:02:43.729Z,2.59
2023-01-17T16:08:04.558Z,2.67
2023-01-17T16:13:24.941Z,2.71
2023-01-17T16:18:46.716Z,2.77
2023-01-17T16:24:09.644Z,2.85
2023-01-17T16:29:30.230Z,2.92
2023-01-17T16:34:51.035Z,2.73
2023-01-17T16:40:12.291Z,2.67
2023-01-17T16:45:40.981Z,2.72
2023-01-17T16:51:05.757Z,2.79
2023-01-17T16:56:26.281Z,2.82
2023-01-17T17:01:48.431Z,2.77
2023-01-17T17:07:09.196Z,2.80
2023-01-17T17:12:29.944Z,2.77
2023-01-17T17:17:51.077Z,2.70
2023-01-17T17:23:12.457Z,2.77
2023-01-17T17:28:33.162Z,2.79
2023-01-17T17:33:58.874Z,2.76
2023-01-17T17:39:19.664Z,2.76
2023-01-17T17:44:40.446Z,2.72
2023-01-17T17:50:00.907Z,2.66
2023-01-17T17:55:21.893Z,2.65
2023-01-17T18:00:42.608Z,2.64
2023-01-17T18:06:06.232Z,2.70
2023-01-17T18:11:27.908Z,2.74
2023-01-17T18:16:48.564Z,2.75
2023-01-17T18:22:09.176Z,2.78
2023-01-17T18:27:29.847Z,2.82
2023-01-17T18:32:51.120Z,3.05
2023-01-17T18:38:11.840Z,3.02
2023-01-17T18:43:32.797Z,3.02
2023-01-17T18:48:56.983Z,2.89
2023-01-17T18:54:19.456Z,2.86
2023-01-17T18:59:40.144Z,2.86
2023-01-17T19:05:05.461Z,2.91
2023-01-17T19:10:25.871Z,2.90
2023-01-17T19:15:46.333Z,2.82
2023-01-17T19:21:12.751Z,2.84
2023-01-17T19:26:34.137Z,2.93
2023-01-17T19:31:55.203Z,3.08
2023-01-17T19:37:15.830Z,3.18
2023-01-17T19:42:36.729Z,3.18
2023-01-17T19:47:58.234Z,3.15
2023-01-17T19:53:19.218Z,3.13
2023-01-17T19:58:40.957Z,3.08
2023-01-17T20:04:02.826Z,3.02
2023-01-17T20:09:25.028Z,2.93
2023-01-17T20:14:45.813Z,2.99
2023-01-17T20:20:07.493Z,2.99
2023-01-17T20:25:28.318Z,2.90
2023-01-17T20:30:49.237Z,2.83
2023-01-17T20:36:12.703Z,2.80
2023-01-17T20:41:36.683Z,2.79
2023-01-17T20:46:57.556Z,2.84
2023-01-17T20:52:18.262Z,2.78
2023-01-17T20:57:39.248Z,2.83
2023-01-17T21:03:00.508Z,2.40
2023-01-17T21:08:21.429Z,2.21
2023-01-17T21:13:43.000Z,2.22
2023-01-17T21:19:04.065Z,2.18
2023-01-17T21:24:24.639Z,2.12
2023-01-17T21:29:45.773Z,2.11
2023-01-17T21:35:07.755Z,2.21
2023-01-17T21:40:28.581Z,2.39
2023-01-17T21:45:51.050Z,2.49
2023-01-17T21:51:11.712Z,2.55
2023-01-17T21:56:51.207Z,2.58
2023-01-17T22:02:11.671Z,2.60
2023-01-17T22:07:33.338Z,2.56
2023-01-17T22:12:54.011Z,2.47
2023-01-17T22:18:15.219Z,2.49
2023-01-17T22:23:36.501Z,2.23
2023-01-17T22:29:00.934Z,1.84
2023-01-17T22:34:22.768Z,1.90
2023-01-17T22:39:43.558Z,1.94
2023-01-17T22:45:06.794Z,1.98
2023-01-17T22:50:27.292Z,2.09
2023-01-17T22:55:47.865Z,2.04
2023-01-17T23:01:14.034Z,2.05
2023-01-17T23:06:37.645Z,2.13
2023-01-17T23:11:58.562Z,2.32
2023-01-17T23:17:39.564Z,2.39
2023-01-17T23:23:00.331Z,2.44
2023-01-17T23:28:21.040Z,2.48
2023-01-17T23:33:41.563Z,2.55
2023-01-17T23:39:02.090Z,2.64
2023-01-17T23:44:23.202Z,2.75
2023-01-17T23:49:45.429Z,2.92
2023-01-17T23:55:06.521Z,2.88
